메인 페이지
METAR-TAF:

METAR-TAF

공항 :

Palmdale Regional Airport / USAF Plant 42

Palmdale, 캘리포니아, 미국

위도: 34-37-47N, 경도: 118-04-53W, 고도: 775m

현재 날씨관측

예보는 1 시간 3분 전, 19:53시(UTC)에 발표되었습니다.
남서14kt, 순간 최대 풍속 20kt
온도 33°C
습도 10%
기압 1015 hPa
시정: 16.1km
맑음

METAR: KPMD 131953Z 22014G20KT 10SM CLR 33/M03 A2997 RMK AO2 SLP116 T03281028

시각: 13:56 (20:56 UTC)

예보

예보는 3 시간 36분 전, 17:20시(UTC)에 발표되었습니다.
예보 대상 시간: 13일 18시부터 14일 18시까지 (UTC)
남서12kt
시정: 10km
맑음
13일 2100시부터 (UTC)
남서15kt, 순간 최대 풍속 25kt
시정: 10km
맑음
14일 0200시부터 (UTC)
남서12kt
시정: 10km
맑음
14일 1000시부터 (UTC)
여러 방향의 바람 3kt
시정: 10km
맑음

TAF: KPMD 131720Z 1318/1418 22012KT P6SM SKC FM132100 23015G25KT P6SM SKC FM140200 22012KT P6SM SKC FM141000 VRB03KT P6SM SKC

4,000개 이상의 공항 관측 자료 및 예보 (METAR 및 TAF 보고).

지도상에서 검색 가능한 기상관측소가 노란 점과 빨간 점으로 표시되어 있습니다.

기상관측소 명을 보려면 표시 위로 마우스를 이동하세요.

날씨 관측과 예보를 보려면 클릭하세요.

지도 변경 : 확대하려면 엑스 표시가 있는 녹색 버튼, 축소하려면 빼기 표시가 있는 녹색 버튼, 다음 페이지의 지도를 보려면 녹색 화살표를 클릭하세요.


METAR-TAF: